Time,TemperatureF,DewpointF,PressureIn,WindDirection,WindDirectionDegrees,WindSpeedMPH,WindSpeedGustMPH,Humidity,HourlyPrecipIn,Conditions,Clouds,dailyrainin,SoftwareType,DateUTC
2013-04-25 00:01:00,56.4,47.1,29.84,SW,236,8.0,11.0,71,0.00,,,0.00,Wunderground v.1.15,2013-04-25 04:01:00,
2013-04-25 00:06:00,56.2,47.3,29.84,SW,218,6.0,18.0,72,0.00,,,0.00,Wunderground v.1.15,2013-04-25 04:06:00,
2013-04-25 00:08:00,56.1,47.2,29.83,South,190,4.0,18.0,72,0.00,,,0.00,Wunderground v.1.15,2013-04-25 04:08:00,
2013-04-25 00:13:00,55.9,47.4,29.84,South,180,3.0,11.0,73,0.00,,,0.00,Wunderground v.1.15,2013-04-25 04:13:00,
2013-04-25 00:18:00,55.7,47.2,29.83,SW,236,11.0,13.0,73,0.00,,,0.00,Wunderground v.1.15,2013-04-25 04:18:00,
2013-04-25 00:23:00,55.6,47.1,29.84,SSW,200,0.0,11.0,73,0.00,,,0.00,Wunderground v.1.15,2013-04-25 04:23:00,
2013-04-25 00:28:00,55.4,48.0,29.83,South,189,1.0,12.0,76,0.00,,,0.00,Wunderground v.1.15,2013-04-25 04:28:00,
2013-04-25 00:33:00,55.2,47.1,29.83,SSE,163,5.0,15.0,74,0.00,,,0.00,Wunderground v.1.15,2013-04-25 04:33:00,
2013-04-25 00:35:00,55.1,47.0,29.83,South,182,7.0,15.0,74,0.00,,,0.00,Wunderground v.1.15,2013-04-25 04:35:00,
2013-04-25 00:40:00,55.0,47.2,29.83,South,191,2.0,7.0,75,0.00,,,0.00,Wunderground v.1.15,2013-04-25 04:40:00,
2013-04-25 00:45:00,54.8,47.0,29.83,SSE,154,2.0,11.0,75,0.00,,,0.00,Wunderground v.1.15,2013-04-25 04:45:00,
2013-04-25 00:50:00,54.6,47.2,29.83,SSW,196,3.0,9.0,76,0.00,,,0.00,Wunderground v.1.15,2013-04-25 04:50:00,
2013-04-25 00:55:00,54.4,47.0,29.83,South,182,4.0,18.0,76,0.00,,,0.00,Wunderground v.1.15,2013-04-25 04:55:00,
2013-04-25 01:01:00,54.3,46.9,29.83,SSW,196,3.0,8.0,76,0.00,,,0.00,Wunderground v.1.15,2013-04-25 05:01:00,
2013-04-25 01:07:00,54.2,47.1,29.83,SSW,195,14.0,14.0,77,0.00,,,0.00,Wunderground v.1.15,2013-04-25 05:07:00,
2013-04-25 01:12:00,54.1,47.4,29.83,WSW,248,6.0,15.0,78,0.00,,,0.00,Wunderground v.1.15,2013-04-25 05:12:00,
2013-04-25 01:18:00,54.1,47.4,29.83,SSW,209,3.0,15.0,78,0.00,,,0.00,Wunderground v.1.15,2013-04-25 05:18:00,
2013-04-25 01:23:00,54.0,47.3,29.82,SSW,209,11.0,11.0,78,0.00,,,0.00,Wunderground v.1.15,2013-04-25 05:23:00,
2013-04-25 01:29:00,53.9,47.2,29.83,SW,221,3.0,12.0,78,0.00,,,0.00,Wunderground v.1.15,2013-04-25 05:29:00,
2013-04-25 01:35:00,53.9,47.5,29.83,West,278,3.0,5.0,79,0.00,,,0.00,Wunderground v.1.15,2013-04-25 05:35:00,
2013-04-25 01:41:00,53.9,47.5,29.84,WSW,244,7.0,7.0,79,0.00,,,0.00,Wunderground v.1.15,2013-04-25 05:41:00,
2013-04-25 01:47:00,53.9,47.9,29.84,SSW,213,12.0,12.0,80,0.00,,,0.00,Wunderground v.1.15,2013-04-25 05:47:00,
2013-04-25 01:52:00,54.0,48.0,29.83,SW,219,5.0,11.0,80,0.00,,,0.00,Wunderground v.1.15,2013-04-25 05:52:00,
2013-04-25 01:57:00,54.0,48.0,29.83,SSW,194,2.0,11.0,80,0.00,,,0.00,Wunderground v.1.15,2013-04-25 05:57:00,
2013-04-25 02:03:00,54.0,48.0,29.84,SW,221,9.0,9.0,80,0.00,,,0.00,Wunderground v.1.15,2013-04-25 06:03:00,
2013-04-25 02:09:00,54.1,48.4,29.83,SW,227,5.0,12.0,81,0.00,,,0.00,Wunderground v.1.15,2013-04-25 06:09:00,
2013-04-25 02:14:00,54.1,48.4,29.83,South,179,3.0,6.0,81,0.00,,,0.00,Wunderground v.1.15,2013-04-25 06:14:00,
2013-04-25 02:20:00,54.2,48.5,29.83,South,180,5.0,5.0,81,0.00,,,0.00,Wunderground v.1.15,2013-04-25 06:20:00,
2013-04-25 02:25:00,54.3,48.6,29.83,South,180,7.0,7.0,81,0.00,,,0.00,Wunderground v.1.15,2013-04-25 06:25:00,
2013-04-25 02:31:00,54.4,49.0,29.83,SSW,213,7.0,7.0,82,0.00,,,0.00,Wunderground v.1.15,2013-04-25 06:31:00,
2013-04-25 02:36:00,54.5,49.1,29.83,SSW,202,5.0,7.0,82,0.00,,,0.00,Wunderground v.1.15,2013-04-25 06:36:00,
2013-04-25 02:42:00,54.6,49.2,29.83,West,261,4.0,5.0,82,0.00,,,0.00,Wunderground v.1.15,2013-04-25 06:42:00,
2013-04-25 02:47:00,54.7,49.3,29.84,SSW,200,5.0,10.0,82,0.00,,,0.00,Wunderground v.1.15,2013-04-25 06:47:00,
2013-04-25 02:53:00,54.8,49.4,29.84,SW,230,2.0,6.0,82,0.00,,,0.00,Wunderground v.1.15,2013-04-25 06:53:00,
2013-04-25 02:59:00,54.8,49.4,29.85,West,265,4.0,7.0,82,0.00,,,0.00,Wunderground v.1.15,2013-04-25 06:59:00,
2013-04-25 03:04:00,54.8,49.4,29.85,SSW,199,0.0,7.0,82,0.00,,,0.00,Wunderground v.1.15,2013-04-25 07:04:00,
2013-04-25 03:09:00,54.9,49.5,29.85,SW,219,2.0,7.0,82,0.00,,,0.00,Wunderground v.1.15,2013-04-25 07:09:00,
2013-04-25 03:14:00,55.0,49.6,29.85,SW,221,5.0,11.0,82,0.00,,,0.00,Wunderground v.1.15,2013-04-25 07:14:00,
2013-04-25 03:19:00,55.0,49.6,29.86,SW,229,1.0,11.0,82,0.00,,,0.00,Wunderground v.1.15,2013-04-25 07:19:00,
2013-04-25 03:24:00,55.1,49.7,29.86,SW,229,2.0,5.0,82,0.00,,,0.00,Wunderground v.1.15,2013-04-25 07:24:00,
2013-04-25 03:29:00,55.1,49.7,29.86,SW,223,6.0,10.0,82,0.00,,,0.00,Wunderground v.1.15,2013-04-25 07:29:00,
2013-04-25 03:34:00,55.2,49.8,29.86,SW,221,0.0,9.0,82,0.00,,,0.00,Wunderground v.1.15,2013-04-25 07:34:00,
2013-04-25 03:39:00,55.3,50.2,29.87,SSW,207,4.0,9.0,83,0.00,,,0.00,Wunderground v.1.15,2013-04-25 07:39:00,
2013-04-25 03:44:00,55.2,50.1,29.86,SW,223,2.0,5.0,83,0.00,,,0.00,Wunderground v.1.15,2013-04-25 07:44:00,
2013-04-25 03:49:00,55.1,50.4,29.87,SSW,207,4.0,6.0,84,0.00,,,0.00,Wunderground v.1.15,2013-04-25 07:49:00,
2013-04-25 03:54:00,55.0,50.6,29.88,WNW,291,1.0,4.0,85,0.00,,,0.00,Wunderground v.1.15,2013-04-25 07:54:00,
2013-04-25 03:59:00,54.8,50.7,29.87,West,259,4.0,4.0,86,0.00,,,0.00,Wunderground v.1.15,2013-04-25 07:59:00,
2013-04-25 04:04:00,54.6,50.5,29.87,West,260,1.0,4.0,86,0.00,,,0.00,Wunderground v.1.15,2013-04-25 08:04:00,
2013-04-25 04:09:00,54.5,50.7,29.88,WSW,237,2.0,5.0,87,0.00,,,0.00,Wunderground v.1.15,2013-04-25 08:09:00,
2013-04-25 04:14:00,54.4,50.6,29.88,WSW,237,0.0,3.0,87,0.00,,,0.00,Wunderground v.1.15,2013-04-25 08:14:00,
2013-04-25 04:19:00,54.4,50.9,29.87,WSW,237,0.0,3.0,88,0.00,,,0.00,Wunderground v.1.15,2013-04-25 08:19:00,
2013-04-25 04:24:00,54.4,50.9,29.88,West,281,1.0,5.0,88,0.00,,,0.00,Wunderground v.1.15,2013-04-25 08:24:00,
2013-04-25 04:29:00,54.3,50.8,29.89,SW,223,1.0,5.0,88,0.00,,,0.01,Wunderground v.1.15,2013-04-25 08:29:00,
2013-04-25 04:34:00,54.3,51.1,29.89,NNW,336,0.0,6.0,89,0.00,,,0.01,Wunderground v.1.15,2013-04-25 08:34:00,
2013-04-25 04:39:00,54.2,51.0,29.89,WSW,257,0.0,13.0,89,0.00,,,0.01,Wunderground v.1.15,2013-04-25 08:39:00,
2013-04-25 04:44:00,54.1,50.9,29.90,WNW,291,6.0,11.0,89,0.00,,,0.01,Wunderground v.1.15,2013-04-25 08:44:00,
2013-04-25 04:49:00,52.8,48.7,29.91,WNW,294,22.0,23.0,86,0.00,,,0.01,Wunderground v.1.15,2013-04-25 08:49:00,
2013-04-25 04:54:00,51.5,46.5,29.92,NW,312,7.0,22.0,83,0.00,,,0.01,Wunderground v.1.15,2013-04-25 08:54:00,
2013-04-25 04:59:00,51.0,45.7,29.92,West,271,8.0,22.0,82,0.00,,,0.01,Wunderground v.1.15,2013-04-25 08:59:00,
2013-04-25 05:04:00,50.6,45.0,29.93,West,271,9.0,18.0,81,0.00,,,0.01,Wunderground v.1.15,2013-04-25 09:04:00,
2013-04-25 05:09:00,50.4,44.8,29.94,NW,311,4.0,18.0,81,0.00,,,0.01,Wunderground v.1.15,2013-04-25 09:09:00,
2013-04-25 05:14:00,50.1,44.2,29.94,WNW,288,3.0,10.0,80,0.00,,,0.01,Wunderground v.1.15,2013-04-25 09:14:00,
2013-04-25 05:19:00,49.8,43.5,29.94,WNW,288,4.0,15.0,79,0.00,,,0.01,Wunderground v.1.15,2013-04-25 09:19:00,
2013-04-25 05:24:00,49.5,43.3,29.94,NW,304,4.0,16.0,79,0.00,,,0.01,Wunderground v.1.15,2013-04-25 09:24:00,
2013-04-25 05:29:00,49.3,42.7,29.95,WNW,294,4.0,16.0,78,0.00,,,0.01,Wunderground v.1.15,2013-04-25 09:29:00,
2013-04-25 05:34:00,49.1,42.5,29.97,West,277,7.0,9.0,78,0.00,,,0.01,Wunderground v.1.15,2013-04-25 09:34:00,
2013-04-25 05:39:00,49.0,42.1,29.97,West,273,9.0,13.0,77,0.00,,,0.01,Wunderground v.1.15,2013-04-25 09:39:00,
2013-04-25 05:44:00,48.8,41.9,29.98,WNW,288,13.0,14.0,77,0.00,,,0.01,Wunderground v.1.15,2013-04-25 09:44:00,
2013-04-25 05:49:00,48.8,41.9,29.98,NW,304,4.0,15.0,77,0.00,,,0.01,Wunderground v.1.15,2013-04-25 09:49:00,
2013-04-25 05:54:00,48.7,41.5,29.98,WNW,284,4.0,13.0,76,0.00,,,0.02,Wunderground v.1.15,2013-04-25 09:54:00,
2013-04-25 05:59:00,48.6,41.4,29.98,West,268,5.0,13.0,76,0.00,,,0.02,Wunderground v.1.15,2013-04-25 09:59:00,
2013-04-25 06:04:00,48.4,40.8,29.98,WNW,283,9.0,17.0,75,0.00,,,0.02,Wunderground v.1.15,2013-04-25 10:04:00,
2013-04-25 06:09:00,48.3,40.0,29.98,WNW,287,7.0,17.0,73,0.00,,,0.02,Wunderground v.1.15,2013-04-25 10:09:00,
2013-04-25 06:14:00,48.2,41.0,29.99,NW,311,4.0,13.0,76,0.00,,,0.02,Wunderground v.1.15,2013-04-25 10:14:00,
2013-04-25 06:19:00,48.1,39.9,29.99,WNW,303,11.0,13.0,73,0.00,,,0.02,Wunderground v.1.15,2013-04-25 10:19:00,
2013-04-25 06:24:00,48.0,38.7,30.00,West,268,3.0,14.0,70,0.00,,,0.02,Wunderground v.1.15,2013-04-25 10:24:00,
2013-04-25 06:29:00,48.1,39.1,30.00,WNW,298,3.0,14.0,71,0.00,,,0.02,Wunderground v.1.15,2013-04-25 10:29:00,
2013-04-25 06:34:00,48.2,38.9,30.00,WNW,302,6.0,12.0,70,0.00,,,0.02,Wunderground v.1.15,2013-04-25 10:34:00,
2013-04-25 06:39:00,48.5,38.8,30.01,WNW,294,7.0,14.0,69,0.00,,,0.02,Wunderground v.1.15,2013-04-25 10:39:00,
2013-04-25 06:44:00,48.8,38.7,30.01,NW,310,15.0,20.0,68,0.00,,,0.02,Wunderground v.1.15,2013-04-25 10:44:00,
2013-04-25 06:49:00,48.8,37.6,30.02,West,266,12.0,20.0,65,0.00,,,0.02,Wunderground v.1.15,2013-04-25 10:49:00,
2013-04-25 06:54:00,48.8,37.2,30.02,NW,304,6.0,17.0,64,0.00,,,0.02,Wunderground v.1.15,2013-04-25 10:54:00,
2013-04-25 06:59:00,48.7,37.5,30.03,NW,307,3.0,17.0,65,0.00,,,0.02,Wunderground v.1.15,2013-04-25 10:59:00,
2013-04-25 07:04:00,48.7,37.5,30.03,WNW,289,5.0,11.0,65,0.00,,,0.02,Wunderground v.1.15,2013-04-25 11:04:00,
2013-04-25 07:09:00,48.7,37.8,30.03,WNW,284,7.0,11.0,66,0.00,,,0.02,Wunderground v.1.15,2013-04-25 11:09:00,
2013-04-25 07:14:00,48.7,37.8,30.03,WNW,300,4.0,16.0,66,0.00,,,0.02,Wunderground v.1.15,2013-04-25 11:14:00,
2013-04-25 07:19:00,48.7,37.1,30.03,WNW,296,10.0,16.0,64,0.00,,,0.02,Wunderground v.1.15,2013-04-25 11:19:00,
2013-04-25 07:24:00,48.6,37.0,30.04,WNW,300,6.0,13.0,64,0.00,,,0.02,Wunderground v.1.15,2013-04-25 11:24:00,
2013-04-25 07:29:00,48.6,36.2,30.04,NW,318,5.0,17.0,62,0.00,,,0.02,Wunderground v.1.15,2013-04-25 11:29:00,
2013-04-25 07:34:00,48.6,36.2,30.05,NW,313,3.0,13.0,62,0.00,,,0.02,Wunderground v.1.15,2013-04-25 11:34:00,
2013-04-25 07:39:00,48.6,36.2,30.05,WNW,294,1.0,13.0,62,0.00,,,0.02,Wunderground v.1.15,2013-04-25 11:39:00,
2013-04-25 07:44:00,48.7,36.3,30.04,West,276,9.0,15.0,62,0.00,,,0.02,Wunderground v.1.15,2013-04-25 11:44:00,
2013-04-25 07:49:00,48.9,36.4,30.05,WNW,299,3.0,15.0,62,0.00,,,0.02,Wunderground v.1.15,2013-04-25 11:49:00,
2013-04-25 07:54:00,49.5,36.6,30.05,NNW,333,12.0,15.0,61,0.00,,,0.02,Wunderground v.1.15,2013-04-25 11:54:00,
2013-04-25 07:59:00,49.7,36.4,30.05,NW,311,12.0,15.0,60,0.00,,,0.02,Wunderground v.1.15,2013-04-25 11:59:00,
2013-04-25 08:04:00,49.5,35.8,30.05,NW,313,3.0,14.0,59,0.00,,,0.02,Wunderground v.1.15,2013-04-25 12:04:00,
2013-04-25 08:09:00,49.6,35.8,30.05,WNW,296,6.0,14.0,59,0.00,,,0.02,Wunderground v.1.15,2013-04-25 12:09:00,
2013-04-25 08:14:00,49.6,36.7,30.05,West,263,5.0,7.0,61,0.00,,,0.02,Wunderground v.1.15,2013-04-25 12:14:00,
2013-04-25 08:19:00,49.4,36.1,30.06,WSW,251,5.0,14.0,60,0.00,,,0.02,Wunderground v.1.15,2013-04-25 12:19:00,
2013-04-25 08:24:00,49.2,35.5,30.06,West,273,17.0,17.0,59,0.00,,,0.02,Wunderground v.1.15,2013-04-25 12:24:00,
2013-04-25 08:29:00,49.3,35.6,30.06,NW,311,18.0,18.0,59,0.00,,,0.02,Wunderground v.1.15,2013-04-25 12:29:00,
2013-04-25 08:34:00,49.6,35.8,30.06,West,280,12.0,20.0,59,0.00,,,0.02,Wunderground v.1.15,2013-04-25 12:34:00,
2013-04-25 08:39:00,50.2,35.5,30.07,NW,312,17.0,22.0,57,0.00,,,0.02,Wunderground v.1.15,2013-04-25 12:39:00,
2013-04-25 08:45:00,50.4,35.3,30.07,NW,318,13.0,15.0,56,0.00,,,0.02,Wunderground v.1.15,2013-04-25 12:45:00,
2013-04-25 08:50:00,50.3,35.2,30.07,WNW,296,7.0,9.0,56,0.00,,,0.02,Wunderground v.1.15,2013-04-25 12:50:00,
2013-04-25 08:55:00,50.3,34.7,30.07,WNW,286,5.0,13.0,55,0.00,,,0.02,Wunderground v.1.15,2013-04-25 12:55:00,
2013-04-25 09:00:00,50.4,36.2,30.07,West,280,5.0,8.0,58,0.00,,,0.02,Wunderground v.1.15,2013-04-25 13:00:00,
2013-04-25 09:05:00,50.9,36.2,30.07,WSW,249,8.0,14.0,57,0.00,,,0.02,Wunderground v.1.15,2013-04-25 13:05:00,
2013-04-25 09:10:00,51.9,35.8,30.07,NNW,327,10.0,14.0,54,0.00,,,0.02,Wunderground v.1.15,2013-04-25 13:10:00,
2013-04-25 09:15:00,52.0,35.9,30.07,NW,323,9.0,14.0,54,0.00,,,0.02,Wunderground v.1.15,2013-04-25 13:15:00,
2013-04-25 09:20:00,52.7,37.0,30.07,West,281,6.0,9.0,55,0.00,,,0.02,Wunderground v.1.15,2013-04-25 13:20:00,
2013-04-25 09:25:00,53.3,36.6,30.07,WNW,288,7.0,12.0,53,0.00,,,0.02,Wunderground v.1.15,2013-04-25 13:25:00,
2013-04-25 09:30:00,53.9,37.1,30.08,West,275,4.0,7.0,53,0.00,,,0.02,Wunderground v.1.15,2013-04-25 13:30:00,
2013-04-25 09:35:00,54.2,36.9,30.07,NNW,340,7.0,13.0,52,0.00,,,0.02,Wunderground v.1.15,2013-04-25 13:35:00,
2013-04-25 09:40:00,54.4,35.6,30.08,NW,322,19.0,19.0,49,0.00,,,0.02,Wunderground v.1.15,2013-04-25 13:40:00,
2013-04-25 09:45:00,54.4,34.6,30.08,NW,319,7.0,19.0,47,0.00,,,0.02,Wunderground v.1.15,2013-04-25 13:45:00,
2013-04-25 09:50:00,54.5,35.7,30.08,NNW,332,10.0,10.0,49,0.00,,,0.02,Wunderground v.1.15,2013-04-25 13:50:00,
2013-04-25 09:55:00,54.4,33.5,30.08,NW,318,14.0,29.0,45,0.00,,,0.02,Wunderground v.1.15,2013-04-25 13:55:00,
2013-04-25 10:00:00,54.3,33.9,30.09,NW,313,10.0,12.0,46,0.00,,,0.02,Wunderground v.1.15,2013-04-25 14:00:00,
2013-04-25 10:05:00,54.4,34.0,30.10,NNW,343,10.0,16.0,46,0.00,,,0.02,Wunderground v.1.15,2013-04-25 14:05:00,
2013-04-25 10:10:00,54.4,33.5,30.09,WNW,299,13.0,13.0,45,0.00,,,0.02,Wunderground v.1.15,2013-04-25 14:10:00,
2013-04-25 10:15:00,54.3,33.9,30.09,WNW,290,6.0,21.0,46,0.00,,,0.02,Wunderground v.1.15,2013-04-25 14:15:00,
2013-04-25 10:20:00,54.7,33.8,30.10,WNW,299,11.0,13.0,45,0.00,,,0.02,Wunderground v.1.15,2013-04-25 14:20:00,
2013-04-25 10:25:00,54.8,33.8,30.09,North,351,9.0,21.0,45,0.00,,,0.02,Wunderground v.1.15,2013-04-25 14:25:00,
2013-04-25 10:30:00,54.6,33.7,30.09,WNW,292,10.0,12.0,45,0.00,,,0.02,Wunderground v.1.15,2013-04-25 14:30:00,
2013-04-25 10:35:00,55.3,35.4,30.09,WNW,284,4.0,15.0,47,0.00,,,0.02,Wunderground v.1.15,2013-04-25 14:35:00,
2013-04-25 10:40:00,55.9,34.3,30.10,NW,311,18.0,18.0,44,0.00,,,0.02,Wunderground v.1.15,2013-04-25 14:40:00,
2013-04-25 10:45:00,56.1,34.5,30.09,WNW,288,10.0,18.0,44,0.00,,,0.02,Wunderground v.1.15,2013-04-25 14:45:00,
2013-04-25 10:50:00,56.6,34.9,30.10,NW,326,7.0,10.0,44,0.00,,,0.02,Wunderground v.1.15,2013-04-25 14:50:00,
2013-04-25 10:55:00,55.9,34.3,30.10,WNW,303,6.0,14.0,44,0.00,,,0.02,Wunderground v.1.15,2013-04-25 14:55:00,
2013-04-25 11:00:00,55.8,35.9,30.10,WNW,291,9.0,9.0,47,0.00,,,0.02,Wunderground v.1.15,2013-04-25 15:00:00,
2013-04-25 11:05:00,56.4,35.3,30.10,NW,322,7.0,13.0,45,0.00,,,0.02,Wunderground v.1.15,2013-04-25 15:05:00,
2013-04-25 11:10:00,56.8,35.1,30.10,NNW,331,6.0,9.0,44,0.00,,,0.02,Wunderground v.1.15,2013-04-25 15:10:00,
2013-04-25 11:15:00,57.1,35.9,30.09,WNW,302,9.0,17.0,45,0.00,,,0.02,Wunderground v.1.15,2013-04-25 15:15:00,
2013-04-25 11:20:00,57.7,36.5,30.10,NNW,331,2.0,7.0,45,0.00,,,0.02,Wunderground v.1.15,2013-04-25 15:20:00,
2013-04-25 11:25:00,58.0,35.0,30.10,West,279,9.0,16.0,42,0.00,,,0.02,Wunderground v.1.15,2013-04-25 15:25:00,
2013-04-25 11:30:00,57.7,34.1,30.11,NNW,327,6.0,8.0,41,0.00,,,0.02,Wunderground v.1.15,2013-04-25 15:30:00,
2013-04-25 11:35:00,57.4,34.5,30.11,NW,319,14.0,14.0,42,0.00,,,0.02,Wunderground v.1.15,2013-04-25 15:35:00,
2013-04-25 11:40:00,57.6,34.7,30.11,WNW,303,7.0,12.0,42,0.00,,,0.02,Wunderground v.1.15,2013-04-25 15:40:00,
2013-04-25 11:45:00,57.7,35.3,30.11,NW,308,16.0,16.0,43,0.00,,,0.02,Wunderground v.1.15,2013-04-25 15:45:00,
2013-04-25 11:50:00,57.6,34.7,30.11,NW,318,10.0,12.0,42,0.00,,,0.02,Wunderground v.1.15,2013-04-25 15:50:00,
2013-04-25 11:55:00,58.2,37.5,30.11,WNW,296,12.0,15.0,46,0.00,,,0.02,Wunderground v.1.15,2013-04-25 15:55:00,
2013-04-25 12:00:00,59.0,35.3,30.11,WNW,297,12.0,14.0,41,0.00,,,0.02,Wunderground v.1.15,2013-04-25 16:00:00,
2013-04-25 12:05:00,59.0,35.3,30.11,NW,310,6.0,14.0,41,0.00,,,0.02,Wunderground v.1.15,2013-04-25 16:05:00,
2013-04-25 12:10:00,58.7,35.0,30.11,West,271,4.0,8.0,41,0.00,,,0.02,Wunderground v.1.15,2013-04-25 16:10:00,
2013-04-25 12:15:00,59.0,34.7,30.11,North,5,10.0,16.0,40,0.00,,,0.02,Wunderground v.1.15,2013-04-25 16:15:00,
2013-04-25 12:20:00,58.2,34.0,30.11,WNW,303,4.0,8.0,40,0.00,,,0.02,Wunderground v.1.15,2013-04-25 16:20:00,
2013-04-25 12:25:00,59.0,36.5,30.11,NW,315,13.0,15.0,43,0.00,,,0.02,Wunderground v.1.15,2013-04-25 16:25:00,
2013-04-25 12:30:00,59.4,33.8,30.11,NNE,14,6.0,7.0,38,0.00,,,0.02,Wunderground v.1.15,2013-04-25 16:30:00,
2013-04-25 12:35:00,58.8,34.5,30.11,NW,309,4.0,12.0,40,0.00,,,0.02,Wunderground v.1.15,2013-04-25 16:35:00,
2013-04-25 12:40:00,59.5,34.5,30.12,NNW,332,11.0,12.0,39,0.00,,,0.02,Wunderground v.1.15,2013-04-25 16:40:00,
2013-04-25 12:45:00,59.6,33.9,30.11,North,10,5.0,12.0,38,0.00,,,0.02,Wunderground v.1.15,2013-04-25 16:45:00,
2013-04-25 12:50:00,59.7,34.0,30.12,NW,322,7.0,9.0,38,0.00,,,0.02,Wunderground v.1.15,2013-04-25 16:50:00,
2013-04-25 12:55:00,60.0,35.0,30.12,North,355,3.0,12.0,39,0.00,,,0.02,Wunderground v.1.15,2013-04-25 16:55:00,
2013-04-25 13:00:00,59.5,34.5,30.12,North,11,6.0,6.0,39,0.00,,,0.02,Wunderground v.1.15,2013-04-25 17:00:00,
2013-04-25 13:05:00,59.6,34.6,30.12,West,267,5.0,18.0,39,0.00,,,0.02,Wunderground v.1.15,2013-04-25 17:05:00,
2013-04-25 13:10:00,60.4,35.3,30.12,West,280,5.0,9.0,39,0.00,,,0.02,Wunderground v.1.15,2013-04-25 17:10:00,
2013-04-25 13:15:00,61.1,36.6,30.12,NW,318,3.0,17.0,40,0.00,,,0.02,Wunderground v.1.15,2013-04-25 17:15:00,
2013-04-25 13:20:00,61.7,36.5,30.12,WNW,300,14.0,15.0,39,0.00,,,0.02,Wunderground v.1.15,2013-04-25 17:20:00,
2013-04-25 13:25:00,62.0,35.4,30.12,West,271,6.0,15.0,37,0.00,,,0.02,Wunderground v.1.15,2013-04-25 17:25:00,
2013-04-25 13:30:00,61.6,35.1,30.12,WNW,286,5.0,8.0,37,0.00,,,0.02,Wunderground v.1.15,2013-04-25 17:30:00,
2013-04-25 13:35:00,61.2,33.3,30.12,NNW,334,10.0,15.0,35,0.00,,,0.02,Wunderground v.1.15,2013-04-25 17:35:00,
2013-04-25 13:40:00,61.1,33.2,30.12,NW,305,10.0,15.0,35,0.00,,,0.02,Wunderground v.1.15,2013-04-25 17:40:00,
2013-04-25 13:45:00,61.6,35.1,30.12,NW,313,9.0,15.0,37,0.00,,,0.02,Wunderground v.1.15,2013-04-25 17:45:00,
2013-04-25 13:50:00,61.6,33.7,30.12,North,9,7.0,7.0,35,0.00,,,0.02,Wunderground v.1.15,2013-04-25 17:50:00,
2013-04-25 13:55:00,60.6,32.8,30.12,North,5,6.0,10.0,35,0.00,,,0.02,Wunderground v.1.15,2013-04-25 17:55:00,
2013-04-25 14:00:00,60.8,33.7,30.12,North,5,3.0,4.0,36,0.00,,,0.02,Wunderground v.1.15,2013-04-25 18:00:00,
2013-04-25 14:05:00,61.1,33.9,30.11,WNW,298,11.0,11.0,36,0.00,,,0.02,Wunderground v.1.15,2013-04-25 18:05:00,
2013-04-25 14:10:00,61.8,34.5,30.12,NW,309,8.0,10.0,36,0.00,,,0.02,Wunderground v.1.15,2013-04-25 18:10:00,
2013-04-25 14:15:00,62.4,33.6,30.12,West,269,9.0,10.0,34,0.00,,,0.02,Wunderground v.1.15,2013-04-25 18:15:00,
2013-04-25 14:20:00,62.2,34.2,30.12,SSE,166,3.0,5.0,35,0.00,,,0.02,Wunderground v.1.15,2013-04-25 18:20:00,
2013-04-25 14:25:00,62.0,34.0,30.12,NNW,337,6.0,12.0,35,0.00,,,0.02,Wunderground v.1.15,2013-04-25 18:25:00,
2013-04-25 14:31:00,62.7,36.7,30.12,NW,306,5.0,7.0,38,0.00,,,0.02,Wunderground v.1.15,2013-04-25 18:31:00,
2013-04-25 14:35:00,63.0,33.4,30.12,NNW,327,2.0,9.0,33,0.00,,,0.02,Wunderground v.1.15,2013-04-25 18:35:00,
2013-04-25 14:41:00,62.0,31.8,30.12,NNW,336,6.0,8.0,32,0.00,,,0.02,Wunderground v.1.15,2013-04-25 18:41:00,
2013-04-25 14:46:00,62.3,33.6,30.12,West,276,8.0,13.0,34,0.00,,,0.02,Wunderground v.1.15,2013-04-25 18:46:00,
2013-04-25 14:51:00,63.0,31.9,30.12,WNW,298,10.0,16.0,31,0.00,,,0.02,Wunderground v.1.15,2013-04-25 18:51:00,
2013-04-25 14:56:00,62.9,33.3,30.12,WNW,298,10.0,16.0,33,0.00,,,0.02,Wunderground v.1.15,2013-04-25 18:56:00,
2013-04-25 15:01:00,63.2,32.8,30.12,West,269,0.0,8.0,32,0.00,,,0.02,Wunderground v.1.15,2013-04-25 19:01:00,
2013-04-25 15:06:00,63.7,33.3,30.12,WNW,288,6.0,9.0,32,0.00,,,0.02,Wunderground v.1.15,2013-04-25 19:06:00,
2013-04-25 15:11:00,63.5,33.9,30.11,North,5,3.0,6.0,33,0.00,,,0.02,Wunderground v.1.15,2013-04-25 19:11:00,
2013-04-25 15:16:00,63.4,32.2,30.11,NW,325,4.0,9.0,31,0.00,,,0.02,Wunderground v.1.15,2013-04-25 19:16:00,
2013-04-25 15:21:00,63.1,31.1,30.11,WNW,301,6.0,11.0,30,0.00,,,0.02,Wunderground v.1.15,2013-04-25 19:21:00,
2013-04-25 15:26:00,63.7,32.5,30.11,NW,308,5.0,11.0,31,0.00,,,0.02,Wunderground v.1.15,2013-04-25 19:26:00,
2013-04-25 15:31:00,63.9,29.2,30.12,NNW,337,3.0,12.0,27,0.00,,,0.02,Wunderground v.1.15,2013-04-25 19:31:00,
2013-04-25 15:36:00,63.5,30.6,30.11,WNW,294,5.0,12.0,29,0.00,,,0.02,Wunderground v.1.15,2013-04-25 19:36:00,
2013-04-25 15:41:00,63.2,31.2,30.12,NNW,335,3.0,10.0,30,0.00,,,0.02,Wunderground v.1.15,2013-04-25 19:41:00,
2013-04-25 15:46:00,63.3,31.3,30.12,NW,313,14.0,14.0,30,0.00,,,0.02,Wunderground v.1.15,2013-04-25 19:46:00,
2013-04-25 15:51:00,63.2,30.4,30.12,NNW,334,6.0,11.0,29,0.00,,,0.02,Wunderground v.1.15,2013-04-25 19:51:00,
2013-04-25 15:56:00,62.7,31.6,30.12,WNW,299,5.0,11.0,31,0.00,,,0.02,Wunderground v.1.15,2013-04-25 19:56:00,
2013-04-25 16:01:00,63.0,30.2,30.12,NW,309,6.0,17.0,29,0.00,,,0.02,Wunderground v.1.15,2013-04-25 20:01:00,
2013-04-25 16:06:00,63.4,29.7,30.12,NNW,330,5.0,17.0,28,0.00,,,0.02,Wunderground v.1.15,2013-04-25 20:06:00,
2013-04-25 16:11:00,63.5,30.6,30.13,WNW,293,10.0,11.0,29,0.00,,,0.02,Wunderground v.1.15,2013-04-25 20:11:00,
2013-04-25 16:16:00,63.6,31.6,30.12,North,350,4.0,11.0,30,0.00,,,0.02,Wunderground v.1.15,2013-04-25 20:16:00,
2013-04-25 16:21:00,63.3,33.7,30.12,NW,304,13.0,13.0,33,0.00,,,0.02,Wunderground v.1.15,2013-04-25 20:21:00,
2013-04-25 16:26:00,63.6,33.2,30.13,WNW,298,7.0,14.0,32,0.00,,,0.02,Wunderground v.1.15,2013-04-25 20:26:00,
2013-04-25 16:31:00,63.9,31.0,30.13,WNW,294,1.0,9.0,29,0.00,,,0.02,Wunderground v.1.15,2013-04-25 20:31:00,
2013-04-25 16:36:00,64.0,31.9,30.13,WNW,294,2.0,9.0,30,0.00,,,0.02,Wunderground v.1.15,2013-04-25 20:36:00,
2013-04-25 16:41:00,64.1,32.8,30.13,West,280,3.0,6.0,31,0.00,,,0.02,Wunderground v.1.15,2013-04-25 20:41:00,
2013-04-25 16:46:00,64.0,31.1,30.13,NW,312,4.0,11.0,29,0.00,,,0.02,Wunderground v.1.15,2013-04-25 20:46:00,
2013-04-25 16:51:00,63.7,31.7,30.13,North,349,3.0,7.0,30,0.00,,,0.02,Wunderground v.1.15,2013-04-25 20:51:00,
2013-04-25 16:56:00,63.2,30.4,30.13,NW,314,7.0,12.0,29,0.00,,,0.02,Wunderground v.1.15,2013-04-25 20:56:00,
2013-04-25 17:01:00,62.9,30.1,30.14,NNE,13,3.0,9.0,29,0.00,,,0.02,Wunderground v.1.15,2013-04-25 21:01:00,
2013-04-25 17:06:00,62.5,29.8,30.14,NNE,21,5.0,13.0,29,0.00,,,0.02,Wunderground v.1.15,2013-04-25 21:06:00,
2013-04-25 17:11:00,62.0,29.3,30.14,WNW,291,5.0,12.0,29,0.00,,,0.02,Wunderground v.1.15,2013-04-25 21:11:00,
2013-04-25 17:16:00,62.0,31.0,30.14,NNE,13,6.0,12.0,31,0.00,,,0.02,Wunderground v.1.15,2013-04-25 21:16:00,
2013-04-25 17:21:00,62.0,29.3,30.14,NNE,26,5.0,6.0,29,0.00,,,0.02,Wunderground v.1.15,2013-04-25 21:21:00,
2013-04-25 17:26:00,62.1,30.3,30.14,NNE,15,3.0,7.0,30,0.00,,,0.02,Wunderground v.1.15,2013-04-25 21:26:00,
2013-04-25 17:31:00,62.2,29.5,30.14,NW,317,2.0,4.0,29,0.00,,,0.02,Wunderground v.1.15,2013-04-25 21:31:00,
2013-04-25 17:36:00,62.5,29.8,30.14,North,10,3.0,10.0,29,0.00,,,0.02,Wunderground v.1.15,2013-04-25 21:36:00,
2013-04-25 17:41:00,62.2,28.7,30.14,NNW,344,3.0,6.0,28,0.00,,,0.02,Wunderground v.1.15,2013-04-25 21:41:00,
2013-04-25 17:46:00,62.2,30.4,30.15,WNW,302,3.0,8.0,30,0.00,,,0.02,Wunderground v.1.15,2013-04-25 21:46:00,
2013-04-25 17:51:00,62.2,28.7,30.15,North,355,3.0,11.0,28,0.00,,,0.02,Wunderground v.1.15,2013-04-25 21:51:00,
2013-04-25 17:56:00,62.0,29.3,30.15,NW,312,4.0,11.0,29,0.00,,,0.02,Wunderground v.1.15,2013-04-25 21:56:00,
2013-04-25 18:01:00,62.2,29.5,30.15,NW,311,6.0,11.0,29,0.00,,,0.02,Wunderground v.1.15,2013-04-25 22:01:00,
2013-04-25 18:06:00,62.0,29.3,30.15,NW,307,7.0,11.0,29,0.00,,,0.02,Wunderground v.1.15,2013-04-25 22:06:00,
2013-04-25 18:11:00,61.8,28.3,30.15,NNW,346,6.0,11.0,28,0.00,,,0.02,Wunderground v.1.15,2013-04-25 22:11:00,
2013-04-25 18:17:00,61.5,28.1,30.15,North,10,6.0,11.0,28,0.00,,,0.02,Wunderground v.1.15,2013-04-25 22:17:00,
2013-04-25 18:22:00,61.3,28.7,30.15,NNW,332,3.0,8.0,29,0.00,,,0.02,Wunderground v.1.15,2013-04-25 22:22:00,
2013-04-25 18:27:00,61.3,28.7,30.16,NW,312,3.0,11.0,29,0.00,,,0.02,Wunderground v.1.15,2013-04-25 22:27:00,
2013-04-25 18:32:00,61.0,27.6,30.16,North,360,1.0,10.0,28,0.00,,,0.02,Wunderground v.1.15,2013-04-25 22:32:00,
2013-04-25 18:37:00,60.8,28.3,30.16,NNW,328,5.0,10.0,29,0.00,,,0.02,Wunderground v.1.15,2013-04-25 22:37:00,
2013-04-25 18:42:00,60.6,27.3,30.16,NNW,345,4.0,7.0,28,0.00,,,0.02,Wunderground v.1.15,2013-04-25 22:42:00,
2013-04-25 18:47:00,60.5,27.2,30.17,NW,321,6.0,10.0,28,0.00,,,0.02,Wunderground v.1.15,2013-04-25 22:47:00,
2013-04-25 18:52:00,60.4,28.0,30.17,NNW,329,3.0,6.0,29,0.00,,,0.02,Wunderground v.1.15,2013-04-25 22:52:00,
2013-04-25 18:57:00,60.2,27.8,30.17,NNW,336,2.0,6.0,29,0.00,,,0.02,Wunderground v.1.15,2013-04-25 22:57:00,
2013-04-25 19:02:00,60.1,27.7,30.17,NW,314,2.0,5.0,29,0.00,,,0.02,Wunderground v.1.15,2013-04-25 23:02:00,
2013-04-25 19:07:00,60.0,28.4,30.17,WNW,295,4.0,5.0,30,0.00,,,0.02,Wunderground v.1.15,2013-04-25 23:07:00,
2013-04-25 19:12:00,59.8,29.1,30.18,WNW,302,1.0,3.0,31,0.00,,,0.02,Wunderground v.1.15,2013-04-25 23:12:00,
2013-04-25 19:17:00,59.7,28.2,30.18,NW,313,1.0,7.0,30,0.00,,,0.02,Wunderground v.1.15,2013-04-25 23:17:00,
2013-04-25 19:22:00,59.5,28.8,30.18,NW,317,2.0,8.0,31,0.00,,,0.02,Wunderground v.1.15,2013-04-25 23:22:00,
2013-04-25 19:27:00,59.3,28.6,30.18,NNW,327,4.0,10.0,31,0.00,,,0.02,Wunderground v.1.15,2013-04-25 23:27:00,
2013-04-25 19:32:00,59.0,28.4,30.19,NNW,336,3.0,6.0,31,0.00,,,0.02,Wunderground v.1.15,2013-04-25 23:32:00,
2013-04-25 19:37:00,59.0,27.6,30.19,NNW,332,2.0,6.0,30,0.00,,,0.02,Wunderground v.1.15,2013-04-25 23:37:00,
2013-04-25 19:42:00,58.6,28.0,30.19,North,355,4.0,5.0,31,0.00,,,0.02,Wunderground v.1.15,2013-04-25 23:42:00,
2013-04-25 19:47:00,58.4,27.9,30.20,North,355,3.0,5.0,31,0.00,,,0.02,Wunderground v.1.15,2013-04-25 23:47:00,
2013-04-25 19:52:00,58.1,28.4,30.20,NNW,336,3.0,5.0,32,0.00,,,0.02,Wunderground v.1.15,2013-04-25 23:52:00,
2013-04-25 19:57:00,57.8,27.3,30.20,North,350,4.0,6.0,31,0.00,,,0.02,Wunderground v.1.15,2013-04-25 23:57:00,
2013-04-25 20:02:00,57.6,27.2,30.20,NNW,329,2.0,4.0,31,0.00,,,0.02,Wunderground v.1.15,2013-04-26 00:02:00,
2013-04-25 20:07:00,57.4,27.7,30.20,NNW,331,1.0,4.0,32,0.00,,,0.02,Wunderground v.1.15,2013-04-26 00:07:00,
2013-04-25 20:12:00,57.2,28.3,30.20,NW,325,2.0,6.0,33,0.00,,,0.02,Wunderground v.1.15,2013-04-26 00:12:00,
2013-04-25 20:17:00,56.9,28.1,30.21,NW,323,1.0,6.0,33,0.00,,,0.02,Wunderground v.1.15,2013-04-26 00:17:00,
2013-04-25 20:22:00,56.6,29.2,30.21,NW,323,0.0,3.0,35,0.00,,,0.02,Wunderground v.1.15,2013-04-26 00:22:00,
2013-04-25 20:27:00,56.1,30.2,30.21,NW,323,0.0,3.0,37,0.00,,,0.02,Wunderground v.1.15,2013-04-26 00:27:00,
2013-04-25 20:32:00,55.3,30.1,30.22,NW,323,0.0,1.0,38,0.00,,,0.02,Wunderground v.1.15,2013-04-26 00:32:00,
2013-04-25 20:37:00,54.6,29.5,30.22,NW,323,0.0,1.0,38,0.00,,,0.02,Wunderground v.1.15,2013-04-26 00:37:00,
2013-04-25 20:42:00,54.0,28.9,30.22,NW,323,0.0,0.0,38,0.00,,,0.02,Wunderground v.1.15,2013-04-26 00:42:00,
2013-04-25 20:47:00,53.5,29.1,30.23,NW,323,0.0,0.0,39,0.00,,,0.02,Wunderground v.1.15,2013-04-26 00:47:00,
2013-04-25 20:52:00,53.1,29.4,30.23,NW,323,0.0,0.0,40,0.00,,,0.02,Wunderground v.1.15,2013-04-26 00:52:00,
2013-04-25 20:57:00,52.6,30.7,30.23,NW,323,0.0,0.0,43,0.00,,,0.02,Wunderground v.1.15,2013-04-26 00:57:00,
2013-04-25 21:02:00,52.2,30.4,30.23,NW,323,0.0,0.0,43,0.00,,,0.02,Wunderground v.1.15,2013-04-26 01:02:00,
2013-04-25 21:07:00,51.8,30.0,30.24,NW,323,0.0,0.0,43,0.00,,,0.02,Wunderground v.1.15,2013-04-26 01:07:00,
2013-04-25 21:12:00,51.4,29.6,30.24,NW,323,0.0,0.0,43,0.00,,,0.02,Wunderground v.1.15,2013-04-26 01:12:00,
2013-04-25 21:17:00,51.0,29.3,30.24,NW,323,0.0,0.0,43,0.00,,,0.02,Wunderground v.1.15,2013-04-26 01:17:00,
2013-04-25 21:22:00,50.6,30.0,30.24,NW,323,0.0,0.0,45,0.00,,,0.02,Wunderground v.1.15,2013-04-26 01:22:00,
2013-04-25 21:27:00,50.2,29.7,30.25,NW,323,0.0,0.0,45,0.00,,,0.02,Wunderground v.1.15,2013-04-26 01:27:00,
2013-04-25 21:32:00,49.9,29.9,30.25,NW,323,0.0,0.0,46,0.00,,,0.02,Wunderground v.1.15,2013-04-26 01:32:00,
2013-04-25 21:37:00,49.4,29.5,30.25,NW,323,0.0,0.0,46,0.00,,,0.02,Wunderground v.1.15,2013-04-26 01:37:00,
2013-04-25 21:42:00,49.0,30.1,30.25,NW,323,0.0,0.0,48,0.00,,,0.02,Wunderground v.1.15,2013-04-26 01:42:00,
2013-04-25 21:47:00,48.7,29.9,30.26,NW,323,0.0,0.0,48,0.00,,,0.02,Wunderground v.1.15,2013-04-26 01:47:00,
2013-04-25 21:52:00,48.4,30.6,30.26,NW,323,0.0,0.0,50,0.00,,,0.02,Wunderground v.1.15,2013-04-26 01:52:00,
2013-04-25 21:57:00,48.1,30.3,30.26,NW,323,0.0,0.0,50,0.00,,,0.02,Wunderground v.1.15,2013-04-26 01:57:00,
2013-04-25 22:02:00,47.7,30.0,30.26,NW,323,0.0,0.0,50,0.00,,,0.02,Wunderground v.1.15,2013-04-26 02:02:00,
2013-04-25 22:07:00,47.4,30.2,30.26,NW,323,0.0,0.0,51,0.00,,,0.02,Wunderground v.1.15,2013-04-26 02:07:00,
2013-04-25 22:12:00,47.1,30.4,30.26,NW,323,0.0,0.0,52,0.00,,,0.02,Wunderground v.1.15,2013-04-26 02:12:00,
2013-04-25 22:17:00,46.9,30.6,30.26,NW,323,0.0,0.0,53,0.00,,,0.02,Wunderground v.1.15,2013-04-26 02:17:00,
2013-04-25 22:22:00,46.5,31.2,30.27,NW,323,0.0,0.0,55,0.00,,,0.02,Wunderground v.1.15,2013-04-26 02:22:00,
2013-04-25 22:27:00,46.1,31.3,30.27,NW,323,0.0,0.0,56,0.00,,,0.02,Wunderground v.1.15,2013-04-26 02:27:00,
2013-04-25 22:32:00,45.9,31.5,30.27,NW,323,0.0,0.0,57,0.00,,,0.02,Wunderground v.1.15,2013-04-26 02:32:00,
2013-04-25 22:37:00,45.6,31.2,30.27,NW,323,0.0,0.0,57,0.00,,,0.02,Wunderground v.1.15,2013-04-26 02:37:00,
2013-04-25 22:43:00,45.3,30.5,30.27,NW,323,0.0,0.0,56,0.00,,,0.02,Wunderground v.1.15,2013-04-26 02:43:00,
2013-04-25 22:48:00,45.1,31.2,30.28,NW,323,0.0,0.0,58,0.00,,,0.02,Wunderground v.1.15,2013-04-26 02:48:00,
2013-04-25 22:53:00,45.0,31.1,30.27,NW,323,0.0,0.0,58,0.00,,,0.02,Wunderground v.1.15,2013-04-26 02:53:00,
2013-04-25 22:58:00,44.8,30.9,30.27,NW,323,0.0,0.0,58,0.00,,,0.02,Wunderground v.1.15,2013-04-26 02:58:00,
2013-04-25 23:03:00,44.5,31.5,30.28,NW,323,0.0,0.0,60,0.00,,,0.02,Wunderground v.1.15,2013-04-26 03:03:00,
2013-04-25 23:08:00,44.3,31.3,30.28,NW,323,0.0,0.0,60,0.00,,,0.02,Wunderground v.1.15,2013-04-26 03:08:00,
2013-04-25 23:13:00,44.2,31.6,30.28,NW,323,0.0,0.0,61,0.00,,,0.02,Wunderground v.1.15,2013-04-26 03:13:00,
2013-04-25 23:18:00,43.9,31.3,30.28,NW,323,0.0,0.0,61,0.00,,,0.02,Wunderground v.1.15,2013-04-26 03:18:00,
2013-04-25 23:23:00,43.8,31.2,30.28,NW,323,0.0,0.0,61,0.00,,,0.02,Wunderground v.1.15,2013-04-26 03:23:00,
2013-04-25 23:28:00,43.7,31.1,30.29,NW,323,0.0,0.0,61,0.00,,,0.02,Wunderground v.1.15,2013-04-26 03:28:00,
2013-04-25 23:33:00,43.5,30.9,30.29,NW,323,0.0,0.0,61,0.00,,,0.02,Wunderground v.1.15,2013-04-26 03:33:00,
2013-04-25 23:38:00,43.4,31.2,30.29,NW,323,0.0,0.0,62,0.00,,,0.02,Wunderground v.1.15,2013-04-26 03:38:00,
2013-04-25 23:43:00,43.2,31.4,30.29,NW,323,0.0,0.0,63,0.00,,,0.02,Wunderground v.1.15,2013-04-26 03:43:00,
2013-04-25 23:48:00,43.0,31.6,30.29,NW,323,0.0,0.0,64,0.00,,,0.02,Wunderground v.1.15,2013-04-26 03:48:00,
2013-04-25 23:53:00,42.8,31.5,30.29,NW,323,0.0,0.0,64,0.00,,,0.02,Wunderground v.1.15,2013-04-26 03:53:00,
2013-04-25 23:58:00,42.4,31.1,30.30,NW,323,0.0,0.0,64,0.00,,,0.02,Wunderground v.1.15,2013-04-26 03:58:00,